sensor_id;sensor_type;location;lat;lon;timestamp;temperature;humidity
1830;DHT22;914;48.118;11.600;2023-04-15T00:01:28;8.40;99.90
1830;DHT22;914;48.118;11.600;2023-04-15T00:03:54;8.30;99.90
1830;DHT22;914;48.118;11.600;2023-04-15T00:06:21;8.30;99.90
1830;DHT22;914;48.118;11.600;2023-04-15T00:08:47;8.30;99.90
1830;DHT22;914;48.118;11.600;2023-04-15T00:11:13;8.30;99.90
1830;DHT22;914;48.118;11.600;2023-04-15T00:13:39;8.20;99.90
1830;DHT22;914;48.118;11.600;2023-04-15T00:16:06;8.20;99.90
1830;DHT22;914;48.118;11.600;2023-04-15T00:18:33;8.30;99.90
1830;DHT22;914;48.118;11.600;2023-04-15T00:20:58;8.40;99.90
1830;DHT22;914;48.118;11.600;2023-04-15T00:23:24;8.30;99.90
1830;DHT22;914;48.118;11.600;2023-04-15T00:25:50;8.50;99.90
1830;DHT22;914;48.118;11.600;2023-04-15T00:28:16;8.40;99.90
1830;DHT22;914;48.118;11.600;2023-04-15T00:30:42;8.40;99.90
1830;DHT22;914;48.118;11.600;2023-04-15T00:33:08;8.40;99.90
1830;DHT22;914;48.118;11.600;2023-04-15T00:35:34;8.40;99.90
1830;DHT22;914;48.118;11.600;2023-04-15T00:38:03;8.50;99.90
1830;DHT22;914;48.118;11.600;2023-04-15T00:40:29;8.30;99.90
1830;DHT22;914;48.118;11.600;2023-04-15T00:42:55;8.20;99.90
1830;DHT22;914;48.118;11.600;2023-04-15T00:45:20;8.10;99.90
1830;DHT22;914;48.118;11.600;2023-04-15T00:47:46;8.30;99.90
1830;DHT22;914;48.118;11.600;2023-04-15T00:50:12;8.30;99.90
1830;DHT22;914;48.118;11.600;2023-04-15T00:52:39;8.30;99.90
1830;DHT22;914;48.118;11.600;2023-04-15T00:55:05;8.40;99.90
1830;DHT22;914;48.118;11.600;2023-04-15T00:57:32;8.50;99.90
1830;DHT22;914;48.118;11.600;2023-04-15T00:59:58;8.30;99.90
1830;DHT22;914;48.118;11.600;2023-04-15T01:02:24;8.30;99.90
1830;DHT22;914;48.118;11.600;2023-04-15T01:04:50;8.40;99.90
1830;DHT22;914;48.118;11.600;2023-04-15T01:07:16;8.50;99.90
1830;DHT22;914;48.118;11.600;2023-04-15T01:09:42;8.50;99.90
1830;DHT22;914;48.118;11.600;2023-04-15T01:12:11;8.40;99.90
1830;DHT22;914;48.118;11.600;2023-04-15T01:14:36;8.30;99.90
1830;DHT22;914;48.118;11.600;2023-04-15T01:17:02;8.50;99.90
1830;DHT22;914;48.118;11.600;2023-04-15T01:19:28;8.40;99.90
1830;DHT22;914;48.118;11.600;2023-04-15T01:21:55;8.30;99.90
1830;DHT22;914;48.118;11.600;2023-04-15T01:24:22;8.30;99.90
1830;DHT22;914;48.118;11.600;2023-04-15T01:26:49;8.30;99.90
1830;DHT22;914;48.118;11.600;2023-04-15T01:29:14;8.50;99.90
1830;DHT22;914;48.118;11.600;2023-04-15T01:31:47;8.50;99.90
1830;DHT22;914;48.118;11.600;2023-04-15T01:34:14;8.40;99.90
1830;DHT22;914;48.118;11.600;2023-04-15T01:36:39;8.40;99.90
1830;DHT22;914;48.118;11.600;2023-04-15T01:39:05;8.40;99.90
1830;DHT22;914;48.118;11.600;2023-04-15T01:41:31;8.40;99.90
1830;DHT22;914;48.118;11.600;2023-04-15T01:43:57;8.40;99.90
1830;DHT22;914;48.118;11.600;2023-04-15T01:46:23;8.40;99.90
1830;DHT22;914;48.118;11.600;2023-04-15T01:48:49;8.50;99.90
1830;DHT22;914;48.118;11.600;2023-04-15T01:51:17;8.40;99.90
1830;DHT22;914;48.118;11.600;2023-04-15T01:53:42;8.40;99.90
1830;DHT22;914;48.118;11.600;2023-04-15T01:56:08;8.40;99.90
1830;DHT22;914;48.118;11.600;2023-04-15T01:58:34;8.40;99.90
1830;DHT22;914;48.118;11.600;2023-04-15T02:01:02;8.20;99.90
1830;DHT22;914;48.118;11.600;2023-04-15T02:03:29;8.20;99.90
1830;DHT22;914;48.118;11.600;2023-04-15T02:05:55;8.20;99.90
1830;DHT22;914;48.118;11.600;2023-04-15T02:08:21;8.40;99.90
1830;DHT22;914;48.118;11.600;2023-04-15T02:10:46;8.30;99.90
1830;DHT22;914;48.118;11.600;2023-04-15T02:13:12;8.10;99.90
1830;DHT22;914;48.118;11.600;2023-04-15T02:15:38;7.90;99.90
1830;DHT22;914;48.118;11.600;2023-04-15T02:18:04;8.00;99.90
1830;DHT22;914;48.118;11.600;2023-04-15T02:20:29;8.00;99.90
1830;DHT22;914;48.118;11.600;2023-04-15T02:22:55;8.10;99.90
1830;DHT22;914;48.118;11.600;2023-04-15T02:25:21;8.10;99.90
1830;DHT22;914;48.118;11.600;2023-04-15T02:27:47;8.00;99.90
1830;DHT22;914;48.118;11.600;2023-04-15T02:30:19;8.00;99.90
1830;DHT22;914;48.118;11.600;2023-04-15T02:32:46;8.10;99.90
1830;DHT22;914;48.118;11.600;2023-04-15T02:35:12;8.20;99.90
1830;DHT22;914;48.118;11.600;2023-04-15T02:37:37;8.00;99.90
1830;DHT22;914;48.118;11.600;2023-04-15T02:40:11;8.00;99.90
1830;DHT22;914;48.118;11.600;2023-04-15T02:42:38;8.10;99.90
1830;DHT22;914;48.118;11.600;2023-04-15T02:45:05;8.10;99.90
1830;DHT22;914;48.118;11.600;2023-04-15T02:47:33;8.10;99.90
1830;DHT22;914;48.118;11.600;2023-04-15T02:49:58;8.50;99.90
1830;DHT22;914;48.118;11.600;2023-04-15T02:52:26;8.30;99.90
1830;DHT22;914;48.118;11.600;2023-04-15T02:54:52;8.20;99.90
1830;DHT22;914;48.118;11.600;2023-04-15T02:57:21;8.30;99.90
1830;DHT22;914;48.118;11.600;2023-04-15T02:59:47;8.00;99.90
1830;DHT22;914;48.118;11.600;2023-04-15T03:02:13;8.00;99.90
1830;DHT22;914;48.118;11.600;2023-04-15T03:04:38;7.90;99.90
1830;DHT22;914;48.118;11.600;2023-04-15T03:07:04;8.20;99.90
1830;DHT22;914;48.118;11.600;2023-04-15T03:09:30;8.10;99.90
1830;DHT22;914;48.118;11.600;2023-04-15T03:11:55;8.00;99.90
1830;DHT22;914;48.118;11.600;2023-04-15T03:14:21;8.10;99.90
1830;DHT22;914;48.118;11.600;2023-04-15T03:16:46;8.00;99.90
1830;DHT22;914;48.118;11.600;2023-04-15T03:19:12;8.20;99.90
1830;DHT22;914;48.118;11.600;2023-04-15T03:21:38;8.00;99.90
1830;DHT22;914;48.118;11.600;2023-04-15T03:24:04;8.00;99.90
1830;DHT22;914;48.118;11.600;2023-04-15T03:26:30;8.10;99.90
1830;DHT22;914;48.118;11.600;2023-04-15T03:28:56;8.20;99.90
1830;DHT22;914;48.118;11.600;2023-04-15T03:31:22;7.90;99.90
1830;DHT22;914;48.118;11.600;2023-04-15T03:33:48;7.90;99.90
1830;DHT22;914;48.118;11.600;2023-04-15T03:36:14;8.00;99.90
1830;DHT22;914;48.118;11.600;2023-04-15T03:38:40;8.20;99.90
1830;DHT22;914;48.118;11.600;2023-04-15T03:41:05;8.10;99.90
1830;DHT22;914;48.118;11.600;2023-04-15T03:43:31;8.20;99.90
1830;DHT22;914;48.118;11.600;2023-04-15T03:45:57;8.30;99.90
1830;DHT22;914;48.118;11.600;2023-04-15T03:48:23;8.40;99.90
1830;DHT22;914;48.118;11.600;2023-04-15T03:50:48;8.30;99.90
1830;DHT22;914;48.118;11.600;2023-04-15T03:53:14;8.20;99.90
1830;DHT22;914;48.118;11.600;2023-04-15T03:55:40;8.30;99.90
1830;DHT22;914;48.118;11.600;2023-04-15T03:58:06;8.40;99.90
1830;DHT22;914;48.118;11.600;2023-04-15T04:00:31;8.40;99.90
1830;DHT22;914;48.118;11.600;2023-04-15T04:02:57;8.30;99.90
1830;DHT22;914;48.118;11.600;2023-04-15T04:05:22;8.30;99.90
1830;DHT22;914;48.118;11.600;2023-04-15T04:07:48;8.40;99.90
1830;DHT22;914;48.118;11.600;2023-04-15T04:10:14;8.50;99.90
1830;DHT22;914;48.118;11.600;2023-04-15T04:12:40;8.30;99.90
1830;DHT22;914;48.118;11.600;2023-04-15T04:15:06;8.30;99.90
1830;DHT22;914;48.118;11.600;2023-04-15T04:17:32;8.60;99.90
1830;DHT22;914;48.118;11.600;2023-04-15T04:19:58;8.50;99.90
1830;DHT22;914;48.118;11.600;2023-04-15T04:22:23;8.40;99.90
1830;DHT22;914;48.118;11.600;2023-04-15T04:24:49;8.30;99.90
1830;DHT22;914;48.118;11.600;2023-04-15T04:27:15;8.40;99.90
1830;DHT22;914;48.118;11.600;2023-04-15T04:29:41;8.40;99.90
1830;DHT22;914;48.118;11.600;2023-04-15T04:32:07;8.50;99.90
1830;DHT22;914;48.118;11.600;2023-04-15T04:34:32;8.60;99.90
1830;DHT22;914;48.118;11.600;2023-04-15T04:36:58;8.50;99.90
1830;DHT22;914;48.118;11.600;2023-04-15T04:39:24;8.40;99.90
1830;DHT22;914;48.118;11.600;2023-04-15T04:41:49;8.30;99.90
1830;DHT22;914;48.118;11.600;2023-04-15T04:44:16;8.10;99.90
1830;DHT22;914;48.118;11.600;2023-04-15T04:46:42;8.10;99.90
1830;DHT22;914;48.118;11.600;2023-04-15T04:49:08;8.10;99.90
1830;DHT22;914;48.118;11.600;2023-04-15T04:51:33;8.30;99.90
1830;DHT22;914;48.118;11.600;2023-04-15T04:53:59;8.30;99.90
1830;DHT22;914;48.118;11.600;2023-04-15T04:56:25;8.10;99.90
1830;DHT22;914;48.118;11.600;2023-04-15T04:58:51;8.50;99.90
1830;DHT22;914;48.118;11.600;2023-04-15T05:01:17;8.60;99.90
1830;DHT22;914;48.118;11.600;2023-04-15T05:03:43;8.40;99.90
1830;DHT22;914;48.118;11.600;2023-04-15T05:06:08;8.40;99.90
1830;DHT22;914;48.118;11.600;2023-04-15T05:08:34;8.50;99.90
1830;DHT22;914;48.118;11.600;2023-04-15T05:11:01;8.30;99.90
1830;DHT22;914;48.118;11.600;2023-04-15T05:13:26;8.10;99.90
1830;DHT22;914;48.118;11.600;2023-04-15T05:15:52;8.00;99.90
1830;DHT22;914;48.118;11.600;2023-04-15T05:18:17;7.90;99.90
1830;DHT22;914;48.118;11.600;2023-04-15T05:20:43;7.90;99.90
1830;DHT22;914;48.118;11.600;2023-04-15T05:23:08;8.00;99.90
1830;DHT22;914;48.118;11.600;2023-04-15T05:25:34;8.20;99.90
1830;DHT22;914;48.118;11.600;2023-04-15T05:27:59;8.20;99.90
1830;DHT22;914;48.118;11.600;2023-04-15T05:30:25;8.00;99.90
1830;DHT22;914;48.118;11.600;2023-04-15T05:32:51;8.20;99.90
1830;DHT22;914;48.118;11.600;2023-04-15T05:35:17;8.30;99.90
1830;DHT22;914;48.118;11.600;2023-04-15T05:37:43;8.30;99.90
1830;DHT22;914;48.118;11.600;2023-04-15T05:40:09;8.00;99.90
1830;DHT22;914;48.118;11.600;2023-04-15T05:42:35;8.10;99.90
1830;DHT22;914;48.118;11.600;2023-04-15T05:45:01;8.00;99.90
1830;DHT22;914;48.118;11.600;2023-04-15T05:47:29;7.90;99.90
1830;DHT22;914;48.118;11.600;2023-04-15T05:49:56;7.90;99.90
1830;DHT22;914;48.118;11.600;2023-04-15T05:52:23;8.10;99.90
1830;DHT22;914;48.118;11.600;2023-04-15T05:54:49;8.10;99.90
1830;DHT22;914;48.118;11.600;2023-04-15T05:57:15;8.20;99.90
1830;DHT22;914;48.118;11.600;2023-04-15T05:59:41;8.50;99.90
1830;DHT22;914;48.118;11.600;2023-04-15T06:02:08;8.30;99.90
1830;DHT22;914;48.118;11.600;2023-04-15T06:04:34;8.50;99.10
1830;DHT22;914;48.118;11.600;2023-04-15T06:07:01;8.50;99.90
1830;DHT22;914;48.118;11.600;2023-04-15T06:09:27;8.90;99.70
1830;DHT22;914;48.118;11.600;2023-04-15T06:11:53;9.20;98.10
1830;DHT22;914;48.118;11.600;2023-04-15T06:14:19;8.70;98.20
1830;DHT22;914;48.118;11.600;2023-04-15T06:16:48;8.60;99.20
1830;DHT22;914;48.118;11.600;2023-04-15T06:19:14;8.80;98.30
1830;DHT22;914;48.118;11.600;2023-04-15T06:21:40;8.70;98.30
1830;DHT22;914;48.118;11.600;2023-04-15T06:24:06;8.50;98.50
1830;DHT22;914;48.118;11.600;2023-04-15T06:26:31;8.50;98.10
1830;DHT22;914;48.118;11.600;2023-04-15T06:28:57;8.50;98.60
1830;DHT22;914;48.118;11.600;2023-04-15T06:31:23;8.40;98.40
1830;DHT22;914;48.118;11.600;2023-04-15T06:33:48;8.50;99.40
1830;DHT22;914;48.118;11.600;2023-04-15T06:36:14;8.90;98.10
1830;DHT22;914;48.118;11.600;2023-04-15T06:38:40;9.10;97.50
1830;DHT22;914;48.118;11.600;2023-04-15T06:41:06;8.90;97.20
1830;DHT22;914;48.118;11.600;2023-04-15T06:43:31;8.90;97.10
1830;DHT22;914;48.118;11.600;2023-04-15T06:45:57;8.50;97.40
1830;DHT22;914;48.118;11.600;2023-04-15T06:48:23;8.30;98.00
1830;DHT22;914;48.118;11.600;2023-04-15T06:50:49;8.60;98.00
1830;DHT22;914;48.118;11.600;2023-04-15T06:53:15;8.70;97.50
1830;DHT22;914;48.118;11.600;2023-04-15T06:55:41;8.80;97.60
1830;DHT22;914;48.118;11.600;2023-04-15T06:58:07;8.90;96.60
1830;DHT22;914;48.118;11.600;2023-04-15T07:00:33;8.70;96.70
1830;DHT22;914;48.118;11.600;2023-04-15T07:02:59;8.80;97.50
1830;DHT22;914;48.118;11.600;2023-04-15T07:05:28;8.80;96.10
1830;DHT22;914;48.118;11.600;2023-04-15T07:07:55;9.00;96.90
1830;DHT22;914;48.118;11.600;2023-04-15T07:10:21;8.90;96.80
1830;DHT22;914;48.118;11.600;2023-04-15T07:12:47;9.00;96.60
1830;DHT22;914;48.118;11.600;2023-04-15T07:15:13;9.40;96.80
1830;DHT22;914;48.118;11.600;2023-04-15T07:17:40;9.50;96.00
1830;DHT22;914;48.118;11.600;2023-04-15T07:20:07;9.40;95.10
1830;DHT22;914;48.118;11.600;2023-04-15T07:22:33;9.60;94.80
1830;DHT22;914;48.118;11.600;2023-04-15T07:24:59;9.50;94.60
1830;DHT22;914;48.118;11.600;2023-04-15T07:27:25;9.70;94.60
1830;DHT22;914;48.118;11.600;2023-04-15T07:29:51;9.40;94.30
1830;DHT22;914;48.118;11.600;2023-04-15T07:32:17;9.50;95.10
1830;DHT22;914;48.118;11.600;2023-04-15T07:34:43;9.50;95.00
1830;DHT22;914;48.118;11.600;2023-04-15T07:37:09;10.10;94.20
1830;DHT22;914;48.118;11.600;2023-04-15T07:39:35;10.00;92.40
1830;DHT22;914;48.118;11.600;2023-04-15T07:42:01;9.90;93.50
1830;DHT22;914;48.118;11.600;2023-04-15T07:44:28;9.70;93.50
1830;DHT22;914;48.118;11.600;2023-04-15T07:46:55;10.00;92.90
1830;DHT22;914;48.118;11.600;2023-04-15T07:49:21;10.10;93.20
1830;DHT22;914;48.118;11.600;2023-04-15T07:51:47;10.70;92.20
1830;DHT22;914;48.118;11.600;2023-04-15T07:54:13;10.60;91.80
1830;DHT22;914;48.118;11.600;2023-04-15T07:56:39;10.50;91.90
1830;DHT22;914;48.118;11.600;2023-04-15T07:59:05;10.20;92.30
1830;DHT22;914;48.118;11.600;2023-04-15T08:01:31;10.20;93.20
1830;DHT22;914;48.118;11.600;2023-04-15T08:03:58;10.20;92.30
1830;DHT22;914;48.118;11.600;2023-04-15T08:06:23;10.70;92.00
1830;DHT22;914;48.118;11.600;2023-04-15T08:08:49;10.60;92.10
1830;DHT22;914;48.118;11.600;2023-04-15T08:11:15;10.60;92.20
1830;DHT22;914;48.118;11.600;2023-04-15T08:13:41;10.60;91.60
1830;DHT22;914;48.118;11.600;2023-04-15T08:16:26;10.60;90.90
1830;DHT22;914;48.118;11.600;2023-04-15T08:18:55;10.50;91.80
1830;DHT22;914;48.118;11.600;2023-04-15T08:21:21;10.50;90.80
1830;DHT22;914;48.118;11.600;2023-04-15T08:23:48;10.80;91.60
1830;DHT22;914;48.118;11.600;2023-04-15T08:26:15;10.70;91.50
1830;DHT22;914;48.118;11.600;2023-04-15T08:28:42;11.00;91.50
1830;DHT22;914;48.118;11.600;2023-04-15T08:31:09;11.20;90.10
1830;DHT22;914;48.118;11.600;2023-04-15T08:33:34;10.90;90.10
1830;DHT22;914;48.118;11.600;2023-04-15T08:36:00;11.00;90.90
1830;DHT22;914;48.118;11.600;2023-04-15T08:38:26;10.90;90.10
1830;DHT22;914;48.118;11.600;2023-04-15T08:40:52;11.00;89.70
1830;DHT22;914;48.118;11.600;2023-04-15T08:43:21;10.80;90.90
1830;DHT22;914;48.118;11.600;2023-04-15T08:45:53;11.00;90.60
1830;DHT22;914;48.118;11.600;2023-04-15T08:48:19;10.80;90.50
1830;DHT22;914;48.118;11.600;2023-04-15T08:50:46;10.80;90.20
1830;DHT22;914;48.118;11.600;2023-04-15T08:53:13;10.70;91.10
1830;DHT22;914;48.118;11.600;2023-04-15T08:55:42;10.50;91.30
1830;DHT22;914;48.118;11.600;2023-04-15T08:58:12;10.60;90.60
1830;DHT22;914;48.118;11.600;2023-04-15T09:00:39;11.00;90.30
1830;DHT22;914;48.118;11.600;2023-04-15T09:03:06;11.20;90.20
1830;DHT22;914;48.118;11.600;2023-04-15T09:05:32;11.00;90.20
1830;DHT22;914;48.118;11.600;2023-04-15T09:07:58;11.10;91.00
1830;DHT22;914;48.118;11.600;2023-04-15T09:10:24;11.20;90.50
1830;DHT22;914;48.118;11.600;2023-04-15T09:12:50;11.20;89.10
1830;DHT22;914;48.118;11.600;2023-04-15T09:15:16;11.10;89.50
1830;DHT22;914;48.118;11.600;2023-04-15T09:17:45;11.20;90.00
1830;DHT22;914;48.118;11.600;2023-04-15T09:20:13;11.50;88.90
1830;DHT22;914;48.118;11.600;2023-04-15T09:22:41;11.70;87.80
1830;DHT22;914;48.118;11.600;2023-04-15T09:28:00;11.70;87.20
1830;DHT22;914;48.118;11.600;2023-04-15T09:30:29;11.70;88.70
1830;DHT22;914;48.118;11.600;2023-04-15T09:33:00;11.40;87.70
1830;DHT22;914;48.118;11.600;2023-04-15T09:35:35;11.50;87.60
1830;DHT22;914;48.118;11.600;2023-04-15T09:38:03;11.30;89.00
1830;DHT22;914;48.118;11.600;2023-04-15T09:40:31;11.50;88.10
1830;DHT22;914;48.118;11.600;2023-04-15T09:42:58;11.20;89.40
1830;DHT22;914;48.118;11.600;2023-04-15T09:45:24;11.50;89.30
1830;DHT22;914;48.118;11.600;2023-04-15T09:47:50;11.60;88.60
1830;DHT22;914;48.118;11.600;2023-04-15T09:50:18;11.30;90.20
1830;DHT22;914;48.118;11.600;2023-04-15T09:52:43;11.50;90.00
1830;DHT22;914;48.118;11.600;2023-04-15T09:55:10;11.50;90.30
1830;DHT22;914;48.118;11.600;2023-04-15T09:57:37;11.60;89.50
1830;DHT22;914;48.118;11.600;2023-04-15T10:00:06;11.50;89.30
1830;DHT22;914;48.118;11.600;2023-04-15T10:02:33;11.50;89.40
1830;DHT22;914;48.118;11.600;2023-04-15T10:04:59;11.60;90.50
1830;DHT22;914;48.118;11.600;2023-04-15T10:07:26;11.60;89.40
1830;DHT22;914;48.118;11.600;2023-04-15T10:09:52;11.80;89.00
1830;DHT22;914;48.118;11.600;2023-04-15T10:12:18;11.80;89.70
1830;DHT22;914;48.118;11.600;2023-04-15T10:14:47;11.90;88.80
1830;DHT22;914;48.118;11.600;2023-04-15T10:17:17;12.00;87.30
1830;DHT22;914;48.118;11.600;2023-04-15T10:19:43;11.50;87.90
1830;DHT22;914;48.118;11.600;2023-04-15T10:22:09;11.30;90.10
1830;DHT22;914;48.118;11.600;2023-04-15T10:24:35;11.50;89.10
1830;DHT22;914;48.118;11.600;2023-04-15T10:27:04;11.50;89.30
1830;DHT22;914;48.118;11.600;2023-04-15T10:29:30;11.60;88.90
1830;DHT22;914;48.118;11.600;2023-04-15T10:31:56;11.70;88.70
1830;DHT22;914;48.118;11.600;2023-04-15T10:34:23;11.70;88.30
1830;DHT22;914;48.118;11.600;2023-04-15T10:36:49;11.90;87.10
1830;DHT22;914;48.118;11.600;2023-04-15T10:42:08;11.60;88.70
1830;DHT22;914;48.118;11.600;2023-04-15T10:44:38;11.30;88.60
1830;DHT22;914;48.118;11.600;2023-04-15T10:47:12;11.60;88.10
1830;DHT22;914;48.118;11.600;2023-04-15T10:49:48;12.00;87.20
1830;DHT22;914;48.118;11.600;2023-04-15T10:52:27;12.00;87.80
1830;DHT22;914;48.118;11.600;2023-04-15T10:55:15;12.10;88.00
1830;DHT22;914;48.118;11.600;2023-04-15T10:57:43;12.30;86.50
1830;DHT22;914;48.118;11.600;2023-04-15T11:00:13;12.50;86.40
1830;DHT22;914;48.118;11.600;2023-04-15T11:02:56;12.40;85.10
1830;DHT22;914;48.118;11.600;2023-04-15T11:08:03;12.00;85.60
1830;DHT22;914;48.118;11.600;2023-04-15T11:13:01;12.00;85.60
1830;DHT22;914;48.118;11.600;2023-04-15T11:15:44;12.10;86.90
1830;DHT22;914;48.118;11.600;2023-04-15T11:18:15;12.20;87.30
1830;DHT22;914;48.118;11.600;2023-04-15T11:20:47;12.00;88.10
1830;DHT22;914;48.118;11.600;2023-04-15T11:23:53;12.10;86.00
1830;DHT22;914;48.118;11.600;2023-04-15T11:26:12;12.30;86.10
1830;DHT22;914;48.118;11.600;2023-04-15T11:28:44;12.10;85.10
1830;DHT22;914;48.118;11.600;2023-04-15T11:31:14;12.10;85.60
1830;DHT22;914;48.118;11.600;2023-04-15T11:33:53;12.20;86.40
1830;DHT22;914;48.118;11.600;2023-04-15T11:36:19;12.10;85.50
1830;DHT22;914;48.118;11.600;2023-04-15T11:38:47;11.90;86.30
1830;DHT22;914;48.118;11.600;2023-04-15T11:41:13;11.90;85.80
1830;DHT22;914;48.118;11.600;2023-04-15T11:43:41;11.50;88.00
1830;DHT22;914;48.118;11.600;2023-04-15T11:46:07;11.10;90.50
1830;DHT22;914;48.118;11.600;2023-04-15T11:48:35;11.20;90.30
1830;DHT22;914;48.118;11.600;2023-04-15T11:51:03;11.30;90.50
1830;DHT22;914;48.118;11.600;2023-04-15T11:53:42;11.30;90.60
1830;DHT22;914;48.118;11.600;2023-04-15T11:56:10;11.50;90.40
1830;DHT22;914;48.118;11.600;2023-04-15T11:58:37;11.50;89.50
1830;DHT22;914;48.118;11.600;2023-04-15T12:01:04;11.20;91.00
1830;DHT22;914;48.118;11.600;2023-04-15T12:03:36;11.50;91.10
1830;DHT22;914;48.118;11.600;2023-04-15T12:08:56;11.30;89.90
1830;DHT22;914;48.118;11.600;2023-04-15T12:13:54;11.60;90.00
1830;DHT22;914;48.118;11.600;2023-04-15T12:16:20;11.60;89.30
1830;DHT22;914;48.118;11.600;2023-04-15T12:18:50;11.40;87.30
1830;DHT22;914;48.118;11.600;2023-04-15T12:21:19;11.40;87.40
1830;DHT22;914;48.118;11.600;2023-04-15T12:23:52;11.50;86.70
1830;DHT22;914;48.118;11.600;2023-04-15T12:26:30;11.50;88.00
1830;DHT22;914;48.118;11.600;2023-04-15T12:29:00;11.40;88.60
1830;DHT22;914;48.118;11.600;2023-04-15T12:31:26;11.40;87.50
1830;DHT22;914;48.118;11.600;2023-04-15T12:33:54;11.70;86.20
1830;DHT22;914;48.118;11.600;2023-04-15T12:36:20;11.70;86.50
1830;DHT22;914;48.118;11.600;2023-04-15T12:38:46;11.70;86.40
1830;DHT22;914;48.118;11.600;2023-04-15T12:41:12;11.50;86.80
1830;DHT22;914;48.118;11.600;2023-04-15T12:43:37;11.80;87.20
1830;DHT22;914;48.118;11.600;2023-04-15T12:46:03;11.70;87.10
1830;DHT22;914;48.118;11.600;2023-04-15T12:48:29;11.60;85.90
1830;DHT22;914;48.118;11.600;2023-04-15T12:50:55;11.80;84.90
1830;DHT22;914;48.118;11.600;2023-04-15T12:53:20;11.90;86.30
1830;DHT22;914;48.118;11.600;2023-04-15T12:55:48;11.90;81.90
1830;DHT22;914;48.118;11.600;2023-04-15T12:58:14;11.90;82.20
1830;DHT22;914;48.118;11.600;2023-04-15T13:00:39;11.90;81.40
1830;DHT22;914;48.118;11.600;2023-04-15T13:03:05;11.70;81.20
1830;DHT22;914;48.118;11.600;2023-04-15T13:05:30;12.00;82.90
1830;DHT22;914;48.118;11.600;2023-04-15T13:07:56;11.70;81.00
1830;DHT22;914;48.118;11.600;2023-04-15T13:10:22;12.00;80.20
1830;DHT22;914;48.118;11.600;2023-04-15T13:12:48;11.80;79.10
1830;DHT22;914;48.118;11.600;2023-04-15T13:15:18;11.90;78.80
1830;DHT22;914;48.118;11.600;2023-04-15T13:17:47;11.50;79.90
1830;DHT22;914;48.118;11.600;2023-04-15T13:20:14;11.50;81.50
1830;DHT22;914;48.118;11.600;2023-04-15T13:22:40;11.60;78.00
1830;DHT22;914;48.118;11.600;2023-04-15T13:25:06;11.80;77.00
1830;DHT22;914;48.118;11.600;2023-04-15T13:27:32;11.50;78.10
1830;DHT22;914;48.118;11.600;2023-04-15T13:29:58;11.60;78.20
1830;DHT22;914;48.118;11.600;2023-04-15T13:32:24;11.90;78.80
1830;DHT22;914;48.118;11.600;2023-04-15T13:34:50;11.80;78.90
1830;DHT22;914;48.118;11.600;2023-04-15T13:37:17;11.10;79.30
1830;DHT22;914;48.118;11.600;2023-04-15T13:39:43;11.20;81.60
1830;DHT22;914;48.118;11.600;2023-04-15T13:42:08;11.30;81.00
1830;DHT22;914;48.118;11.600;2023-04-15T13:44:34;11.30;81.60
1830;DHT22;914;48.118;11.600;2023-04-15T13:47:00;11.50;81.50
1830;DHT22;914;48.118;11.600;2023-04-15T13:49:27;11.30;82.10
1830;DHT22;914;48.118;11.600;2023-04-15T13:51:53;10.90;83.10
1830;DHT22;914;48.118;11.600;2023-04-15T13:54:19;11.20;83.50
1830;DHT22;914;48.118;11.600;2023-04-15T13:56:47;11.20;84.30
1830;DHT22;914;48.118;11.600;2023-04-15T13:59:13;11.70;84.10
1830;DHT22;914;48.118;11.600;2023-04-15T14:01:38;11.40;83.20
1830;DHT22;914;48.118;11.600;2023-04-15T14:04:05;11.10;84.70
1830;DHT22;914;48.118;11.600;2023-04-15T14:06:31;11.10;85.80
1830;DHT22;914;48.118;11.600;2023-04-15T14:08:57;10.60;86.80
1830;DHT22;914;48.118;11.600;2023-04-15T14:11:22;10.60;88.10
1830;DHT22;914;48.118;11.600;2023-04-15T14:13:48;10.90;86.00
1830;DHT22;914;48.118;11.600;2023-04-15T14:16:15;10.70;84.60
1830;DHT22;914;48.118;11.600;2023-04-15T14:18:42;10.70;85.20
1830;DHT22;914;48.118;11.600;2023-04-15T14:21:08;10.90;83.80
1830;DHT22;914;48.118;11.600;2023-04-15T14:23:34;10.70;85.20
1830;DHT22;914;48.118;11.600;2023-04-15T14:25:59;10.80;84.20
1830;DHT22;914;48.118;11.600;2023-04-15T14:28:25;10.80;84.00
1830;DHT22;914;48.118;11.600;2023-04-15T14:30:50;10.90;83.30
1830;DHT22;914;48.118;11.600;2023-04-15T14:33:16;11.20;83.20
1830;DHT22;914;48.118;11.600;2023-04-15T14:35:42;11.00;82.80
1830;DHT22;914;48.118;11.600;2023-04-15T14:38:08;10.90;82.10
1830;DHT22;914;48.118;11.600;2023-04-15T14:40:35;10.90;81.70
1830;DHT22;914;48.118;11.600;2023-04-15T14:43:01;10.80;83.10
1830;DHT22;914;48.118;11.600;2023-04-15T14:45:27;11.30;83.20
1830;DHT22;914;48.118;11.600;2023-04-15T14:47:53;11.10;81.60
1830;DHT22;914;48.118;11.600;2023-04-15T14:50:18;10.90;82.40
1830;DHT22;914;48.118;11.600;2023-04-15T14:52:44;11.00;82.60
1830;DHT22;914;48.118;11.600;2023-04-15T14:55:11;11.00;82.30
1830;DHT22;914;48.118;11.600;2023-04-15T14:57:40;11.20;82.90
1830;DHT22;914;48.118;11.600;2023-04-15T15:00:08;11.40;81.80
1830;DHT22;914;48.118;11.600;2023-04-15T15:02:34;11.50;82.10
1830;DHT22;914;48.118;11.600;2023-04-15T15:05:02;11.10;83.40
1830;DHT22;914;48.118;11.600;2023-04-15T15:07:28;11.20;83.70
1830;DHT22;914;48.118;11.600;2023-04-15T15:09:54;11.40;83.70
1830;DHT22;914;48.118;11.600;2023-04-15T15:12:20;11.20;84.40
1830;DHT22;914;48.118;11.600;2023-04-15T15:14:47;11.30;85.80
1830;DHT22;914;48.118;11.600;2023-04-15T15:17:13;11.10;86.50
1830;DHT22;914;48.118;11.600;2023-04-15T15:19:39;10.90;89.20
1830;DHT22;914;48.118;11.600;2023-04-15T15:22:04;10.40;90.90
1830;DHT22;914;48.118;11.600;2023-04-15T15:24:30;10.50;91.30
1830;DHT22;914;48.118;11.600;2023-04-15T15:26:56;10.50;91.40
1830;DHT22;914;48.118;11.600;2023-04-15T15:29:22;10.70;91.70
1830;DHT22;914;48.118;11.600;2023-04-15T15:31:47;10.60;92.00
1830;DHT22;914;48.118;11.600;2023-04-15T15:34:13;10.10;93.20
1830;DHT22;914;48.118;11.600;2023-04-15T15:36:38;9.70;94.40
1830;DHT22;914;48.118;11.600;2023-04-15T15:39:04;9.70;95.10
1830;DHT22;914;48.118;11.600;2023-04-15T15:41:30;10.00;94.40
1830;DHT22;914;48.118;11.600;2023-04-15T15:43:57;10.00;94.00
1830;DHT22;914;48.118;11.600;2023-04-15T15:46:23;10.00;94.20
1830;DHT22;914;48.118;11.600;2023-04-15T15:48:50;10.00;94.50
1830;DHT22;914;48.118;11.600;2023-04-15T15:51:15;10.00;94.80
1830;DHT22;914;48.118;11.600;2023-04-15T15:53:41;10.00;95.10
1830;DHT22;914;48.118;11.600;2023-04-15T15:56:09;9.90;96.20
1830;DHT22;914;48.118;11.600;2023-04-15T15:58:35;10.00;95.80
1830;DHT22;914;48.118;11.600;2023-04-15T16:01:01;10.00;95.30
1830;DHT22;914;48.118;11.600;2023-04-15T16:03:26;9.60;96.40
1830;DHT22;914;48.118;11.600;2023-04-15T16:05:52;9.80;97.00
1830;DHT22;914;48.118;11.600;2023-04-15T16:08:18;10.10;95.70
1830;DHT22;914;48.118;11.600;2023-04-15T16:10:44;10.00;95.40
1830;DHT22;914;48.118;11.600;2023-04-15T16:13:10;9.70;96.20
1830;DHT22;914;48.118;11.600;2023-04-15T16:15:36;9.70;96.80
1830;DHT22;914;48.118;11.600;2023-04-15T16:18:01;9.90;97.00
1830;DHT22;914;48.118;11.600;2023-04-15T16:20:27;10.10;95.70
1830;DHT22;914;48.118;11.600;2023-04-15T16:22:55;10.00;96.00